Villacoublay-Vélizy (BA 107) Air Base

Airport
ICAO code: 
LFPV
Summary
ICAO Region: 
EUR
Territory: 
Location: 
, Ile-de-France
Serving: 
Villacoublay
Elevation: 
584 ft
Coordinates: 
Aerial View: 
48° 46' 27.862" N, 2° 12' 5.53" E
Metar
Observation
LFPV 060600Z AUTO 32005KT 9999 BKN008/// BKN015/// OVC041/// ///TCU 04/04 Q1014 TEMPO 4000 -DZRA BKN004
Station
Villacoublay
Date/Time
2021-12-06 06:00:00
Wind direction
320°
Wind speed
05 kts
Lowest cloud amount
broken clouds
Temperature
4°C
Dew point
4°C
Humidity
100%
QNH
1014 hPa
Weather condition
n/a

Runways

Designator Length Width Surface Rops
9/27 1813 45 ASP No/No
Airport map: 
Aerial View: 

SKYbrary Partners:

Safety knowledge contributed by: